Arock, Oregon
Current Conditions -  °F | °C
As of 3:55 PM on Thursday 20 Nov 2014 (Local Time) from KEUL Reporting Station
Few Clouds Few Clouds  
Wind Chill: 19°   Ceiling: Unl
Heat Index: 27°   Visibility: 5mi
Dew Point: 16°   Wind: 7mph
Humidity: 64%   Direction: 200°SSW
Pressure: 30.15"   Gusts: NA
Location:  42.91°N, 117.53°W
Report Text: KEUL 202255Z AUTO 20006KT 5SM FEW120 M03/M09 A3015 RMK AO1
Loading
Personal Weather Stations






























Interactive Weather Map New forecast layout! Learn more

10-Day Weather Forecast

Advertisements
Track Severe Weather on mobile